createdAt,value
2018-04-19T00:01:12.374Z,52.90
2018-04-19T00:03:39.834Z,52.50
2018-04-19T00:06:07.284Z,52.30
2018-04-19T00:08:34.717Z,52.80
2018-04-19T00:11:02.178Z,52.40
2018-04-19T00:13:29.599Z,52.60
2018-04-19T00:15:57.050Z,51.70
2018-04-19T00:18:24.482Z,52.50
2018-04-19T00:20:51.923Z,52.10
2018-04-19T00:23:19.365Z,52.10
2018-04-19T00:25:46.810Z,51.80
2018-04-19T00:28:14.249Z,52.20
2018-04-19T00:30:41.689Z,52.20
2018-04-19T00:33:09.124Z,52.10
2018-04-19T00:35:36.565Z,51.00
2018-04-19T00:38:03.991Z,51.20
2018-04-19T00:40:31.441Z,50.30
2018-04-19T00:42:58.875Z,50.40
2018-04-19T00:45:26.323Z,50.30
2018-04-19T00:47:53.757Z,50.10
2018-04-19T00:50:21.197Z,50.10
2018-04-19T00:55:49.552Z,50.20
2018-04-19T00:58:16.963Z,49.40
2018-04-19T01:00:44.407Z,50.10
2018-04-19T01:03:11.832Z,49.80
2018-04-19T01:05:39.296Z,49.90
2018-04-19T01:08:06.738Z,49.50
2018-04-19T01:10:34.179Z,49.30
2018-04-19T01:13:01.636Z,49.20
2018-04-19T01:15:29.089Z,53.40
2018-04-19T01:17:56.541Z,56.10
2018-04-19T01:20:23.979Z,58.00
2018-04-19T01:22:51.417Z,59.10
2018-04-19T01:25:18.874Z,60.50
2018-04-19T01:27:46.320Z,62.50
2018-04-19T01:30:13.762Z,63.20
2018-04-19T01:32:41.203Z,62.80
2018-04-19T01:35:08.644Z,64.20
2018-04-19T01:37:36.093Z,66.00
2018-04-19T01:40:03.516Z,66.00
2018-04-19T01:42:30.968Z,66.90
2018-04-19T01:44:58.410Z,67.90
2018-04-19T01:47:25.848Z,68.60
2018-04-19T01:49:53.291Z,68.70
2018-04-19T01:52:20.738Z,68.90
2018-04-19T01:54:48.189Z,69.30
2018-04-19T01:57:15.644Z,69.60
2018-04-19T01:59:43.102Z,70.30
2018-04-19T02:02:10.557Z,71.20
2018-04-19T02:04:37.988Z,71.90
2018-04-19T02:07:05.436Z,71.90
2018-04-19T02:09:33.641Z,73.20
2018-04-19T02:12:01.107Z,73.10
2018-04-19T02:14:28.547Z,73.20
2018-04-19T02:16:56.001Z,73.60
2018-04-19T02:19:24.240Z,74.00
2018-04-19T02:21:51.689Z,73.90
2018-04-19T02:24:19.134Z,74.60
2018-04-19T02:26:46.597Z,74.50
2018-04-19T02:29:14.054Z,74.70
2018-04-19T02:31:41.504Z,74.80
2018-04-19T02:34:08.944Z,75.20
2018-04-19T02:36:37.217Z,75.00
2018-04-19T02:39:04.654Z,74.90
2018-04-19T02:41:32.086Z,75.10
2018-04-19T02:43:59.593Z,75.10
2018-04-19T02:46:27.032Z,75.50
2018-04-19T02:48:54.476Z,75.60
2018-04-19T02:51:21.909Z,76.00
2018-04-19T02:53:49.357Z,76.50
2018-04-19T02:56:17.572Z,76.80
2018-04-19T02:58:45.033Z,76.60
2018-04-19T03:01:12.464Z,76.30
2018-04-19T03:03:40.683Z,76.30
2018-04-19T03:06:08.121Z,76.30
2018-04-19T03:08:35.595Z,76.10
2018-04-19T03:11:03.046Z,76.00
2018-04-19T03:13:30.498Z,76.90
2018-04-19T03:15:58.700Z,76.70
2018-04-19T03:18:26.151Z,76.70
2018-04-19T03:20:53.606Z,79.10
2018-04-19T03:23:21.051Z,80.40
2018-04-19T03:25:49.256Z,82.00
2018-04-19T03:28:16.698Z,81.40
2018-04-19T03:30:44.907Z,80.60
2018-04-19T03:33:12.356Z,80.60
2018-04-19T03:35:40.601Z,79.50
2018-04-19T03:38:08.027Z,79.40
2018-04-19T03:40:35.475Z,81.40
2018-04-19T03:43:02.931Z,80.30
2018-04-19T03:45:31.148Z,82.20
2018-04-19T03:47:58.609Z,82.10
2018-04-19T03:50:26.049Z,82.80
2018-04-19T03:52:53.500Z,83.20
2018-04-19T03:55:20.946Z,83.60
2018-04-19T03:57:49.148Z,80.60
2018-04-19T04:00:16.585Z,80.60
2018-04-19T04:02:44.784Z,81.00
2018-04-19T04:05:12.246Z,81.00
2018-04-19T04:07:39.686Z,81.10
2018-04-19T04:10:07.900Z,80.30
2018-04-19T04:12:35.352Z,80.30
2018-04-19T04:15:02.810Z,81.50
2018-04-19T04:17:42.000Z,81.60
2018-04-19T04:20:21.376Z,81.80
2018-04-19T04:23:00.699Z,82.90
2018-04-19T04:25:28.152Z,82.60
2018-04-19T04:27:56.357Z,80.30
2018-04-19T04:30:24.597Z,82.80
2018-04-19T04:32:52.824Z,84.40
2018-04-19T04:35:20.309Z,84.30
2018-04-19T04:37:47.737Z,84.30
2018-04-19T04:40:15.197Z,84.40
2018-04-19T04:42:42.648Z,84.20
2018-04-19T04:45:10.110Z,84.30
2018-04-19T04:47:37.565Z,84.10
2018-04-19T04:50:05.781Z,84.60
2018-04-19T04:52:33.225Z,84.60
2018-04-19T04:55:00.687Z,82.60
2018-04-19T04:57:28.135Z,85.30
2018-04-19T04:59:56.381Z,84.80
2018-04-19T05:02:23.833Z,84.90
2018-04-19T05:04:51.296Z,85.40
2018-04-19T05:07:18.741Z,83.60
2018-04-19T05:09:46.198Z,84.50
2018-04-19T05:12:13.655Z,83.10
2018-04-19T05:14:41.118Z,82.10
2018-04-19T05:17:08.575Z,82.60
2018-04-19T05:19:36.037Z,84.20
2018-04-19T05:22:03.478Z,84.80
2018-04-19T05:24:30.956Z,86.20
2018-04-19T05:26:58.404Z,85.00
2018-04-19T05:29:25.862Z,85.10
2018-04-19T05:31:54.147Z,85.00
2018-04-19T05:34:22.352Z,86.60
2018-04-19T05:36:49.807Z,86.50
2018-04-19T05:39:17.236Z,83.80
2018-04-19T05:41:45.479Z,85.00
2018-04-19T05:44:12.930Z,85.00
2018-04-19T05:46:40.394Z,84.10
2018-04-19T05:49:07.836Z,83.40
2018-04-19T05:51:35.287Z,83.40
2018-04-19T05:54:02.747Z,83.40
2018-04-19T05:56:30.200Z,84.30
2018-04-19T05:58:57.652Z,83.70
2018-04-19T06:01:25.885Z,84.60
2018-04-19T06:03:53.324Z,84.50
2018-04-19T06:06:20.796Z,84.60
2018-04-19T06:08:48.252Z,84.20
2018-04-19T06:11:15.707Z,84.90
2018-04-19T06:13:43.150Z,85.00
2018-04-19T06:16:11.381Z,85.00
2018-04-19T06:18:38.823Z,85.00
2018-04-19T06:21:06.288Z,84.80
2018-04-19T06:23:33.748Z,84.70
2018-04-19T06:26:01.230Z,84.70
2018-04-19T06:28:28.669Z,84.60
2018-04-19T06:30:56.136Z,83.80
2018-04-19T06:33:24.350Z,83.40
2018-04-19T06:35:51.812Z,83.40
2018-04-19T06:38:19.270Z,83.20
2018-04-19T06:40:46.737Z,82.90
2018-04-19T06:43:14.192Z,84.00
2018-04-19T06:45:41.636Z,83.70
2018-04-19T06:48:09.102Z,83.90
2018-04-19T06:50:36.571Z,83.00
2018-04-19T06:53:04.848Z,83.50
2018-04-19T06:55:32.306Z,83.50
2018-04-19T06:57:59.768Z,82.50
2018-04-19T07:00:27.224Z,81.60
2018-04-19T07:02:54.693Z,81.10
2018-04-19T07:05:22.138Z,80.80
2018-04-19T07:07:49.613Z,80.70
2018-04-19T07:10:17.056Z,80.30
2018-04-19T07:12:44.526Z,80.20
2018-04-19T07:15:11.980Z,80.30
2018-04-19T07:17:39.441Z,80.10
2018-04-19T07:20:06.891Z,80.00
2018-04-19T07:22:34.351Z,79.60
2018-04-19T07:25:02.569Z,79.80
2018-04-19T07:27:30.037Z,79.80
2018-04-19T07:29:57.480Z,78.80
2018-04-19T07:32:24.935Z,78.80
2018-04-19T07:34:52.389Z,78.50
2018-04-19T07:37:19.861Z,78.80
2018-04-19T07:39:47.322Z,78.40
2018-04-19T07:42:14.777Z,79.40
2018-04-19T07:44:42.243Z,78.60
2018-04-19T07:47:09.718Z,77.80
2018-04-19T07:49:37.169Z,78.00
2018-04-19T07:52:04.621Z,78.40
2018-04-19T07:54:32.059Z,77.80
2018-04-19T07:57:00.302Z,79.50
2018-04-19T07:59:27.749Z,79.50
2018-04-19T08:01:55.233Z,78.80
2018-04-19T08:04:22.727Z,76.90
2018-04-19T08:06:50.180Z,76.80
2018-04-19T08:09:17.640Z,78.70
2018-04-19T08:11:45.103Z,78.20
2018-04-19T08:14:12.562Z,78.60
2018-04-19T08:16:40.008Z,78.60
2018-04-19T08:19:07.467Z,77.80
2018-04-19T08:21:34.939Z,77.90
2018-04-19T08:24:03.270Z,76.60
2018-04-19T08:26:31.465Z,77.00
2018-04-19T08:28:58.924Z,77.00
2018-04-19T08:31:26.384Z,76.60
2018-04-19T08:33:53.832Z,76.60
2018-04-19T08:36:21.304Z,76.20
2018-04-19T08:38:48.760Z,74.90
2018-04-19T08:41:16.224Z,74.50
2018-04-19T08:43:43.664Z,75.80
2018-04-19T08:46:11.886Z,75.10
2018-04-19T08:48:39.351Z,75.00
2018-04-19T08:51:06.816Z,72.90
2018-04-19T08:53:34.264Z,72.50
2018-04-19T08:56:01.728Z,71.80
2018-04-19T08:58:29.185Z,72.50
2018-04-19T09:00:57.395Z,71.90
2018-04-19T09:03:24.853Z,71.90
2018-04-19T09:05:52.300Z,71.00
2018-04-19T09:08:19.767Z,71.20
2018-04-19T09:10:47.241Z,73.50
2018-04-19T09:13:14.694Z,74.70
2018-04-19T09:15:42.141Z,73.80
2018-04-19T09:18:09.604Z,72.30
2018-04-19T09:20:37.048Z,71.90
2018-04-19T09:23:04.500Z,70.90
2018-04-19T09:25:32.732Z,71.10
2018-04-19T09:28:00.179Z,71.10
2018-04-19T09:30:28.405Z,69.90
2018-04-19T09:32:55.862Z,69.90
2018-04-19T09:35:23.316Z,70.20
2018-04-19T09:37:50.773Z,69.50
2018-04-19T09:40:18.242Z,70.40
2018-04-19T09:42:45.671Z,70.10
2018-04-19T09:45:13.133Z,67.60
2018-04-19T09:47:40.595Z,67.10
2018-04-19T09:50:08.049Z,69.90
2018-04-19T09:52:35.482Z,67.00
2018-04-19T09:55:03.706Z,67.00
2018-04-19T09:57:31.171Z,67.00
2018-04-19T09:59:58.638Z,66.10
2018-04-19T10:02:28.849Z,65.80
2018-04-19T10:05:02.118Z,67.50
2018-04-19T10:07:29.570Z,66.10
2018-04-19T10:09:57.797Z,64.40
2018-04-19T10:12:25.245Z,64.40
2018-04-19T10:14:52.704Z,63.90
2018-04-19T10:17:20.152Z,62.40
2018-04-19T10:19:47.609Z,63.00
2018-04-19T10:22:15.106Z,63.20
2018-04-19T10:24:42.563Z,63.90
2018-04-19T10:27:10.015Z,63.70
2018-04-19T10:29:37.497Z,64.20
2018-04-19T10:32:04.948Z,63.40
2018-04-19T10:34:32.398Z,63.20
2018-04-19T10:36:59.854Z,64.20
2018-04-19T10:39:27.335Z,62.80
2018-04-19T10:41:54.794Z,62.70
2018-04-19T10:44:23.254Z,61.30
2018-04-19T10:46:50.708Z,63.70
2018-04-19T10:49:18.927Z,60.40
2018-04-19T10:51:46.374Z,60.40
2018-04-19T10:54:13.825Z,60.40
2018-04-19T10:56:41.301Z,60.00
2018-04-19T10:59:08.757Z,59.70
2018-04-19T11:01:36.228Z,59.00
2018-04-19T11:04:03.664Z,59.30
2018-04-19T11:06:31.892Z,59.00
2018-04-19T11:08:59.344Z,59.00
2018-04-19T11:11:26.812Z,59.40
2018-04-19T11:13:54.274Z,58.70
2018-04-19T11:16:21.749Z,59.70
2018-04-19T11:18:49.200Z,56.60
2018-04-19T11:21:16.663Z,57.20
2018-04-19T11:23:44.104Z,57.20
2018-04-19T11:26:11.581Z,58.50
2018-04-19T11:28:39.034Z,56.90
2018-04-19T11:31:06.498Z,56.80
2018-04-19T11:33:34.707Z,56.60
2018-04-19T11:36:02.167Z,56.60
2018-04-19T11:38:29.632Z,56.50
2018-04-19T11:40:57.084Z,54.70
2018-04-19T11:43:24.537Z,53.60
2018-04-19T11:45:51.996Z,55.00
2018-04-19T11:48:19.461Z,54.00
2018-04-19T11:50:47.675Z,53.00
2018-04-19T11:53:15.117Z,53.00
2018-04-19T11:55:42.617Z,54.60
2018-04-19T11:58:10.863Z,51.00
2018-04-19T12:00:38.301Z,50.90
2018-04-19T12:03:05.777Z,52.90
2018-04-19T12:05:33.223Z,52.50
2018-04-19T12:08:00.678Z,52.50
2018-04-19T12:10:28.149Z,53.00
2018-04-19T12:12:55.604Z,52.80
2018-04-19T12:15:23.059Z,51.80
2018-04-19T12:17:50.500Z,52.80
2018-04-19T12:20:18.715Z,50.30
2018-04-19T12:22:46.177Z,50.30
2018-04-19T12:25:14.395Z,52.90
2018-04-19T12:27:41.865Z,53.00
2018-04-19T12:30:09.304Z,50.30
2018-04-19T12:32:36.762Z,51.10
2018-04-19T12:35:04.233Z,52.00
2018-04-19T12:37:31.763Z,50.50
2018-04-19T12:39:59.134Z,51.50
2018-04-19T12:42:26.603Z,52.80
2018-04-19T12:44:54.063Z,51.70
2018-04-19T12:47:21.533Z,50.90
2018-04-19T12:49:48.985Z,49.70
2018-04-19T12:52:17.233Z,50.30
2018-04-19T12:54:45.439Z,50.70
2018-04-19T12:57:12.904Z,50.70
2018-04-19T12:59:40.403Z,49.90
2018-04-19T13:02:07.871Z,51.30
2018-04-19T13:04:35.304Z,48.30
2018-04-19T13:07:02.765Z,50.70
2018-04-19T13:09:30.237Z,50.00
2018-04-19T13:11:57.701Z,51.70
2018-04-19T13:14:25.158Z,50.10
2018-04-19T13:16:52.694Z,47.10
2018-04-19T13:19:20.125Z,50.40
2018-04-19T13:21:48.360Z,45.50
2018-04-19T13:24:15.811Z,45.40
2018-04-19T13:26:43.288Z,47.00
2018-04-19T13:29:10.728Z,45.40
2018-04-19T13:31:38.190Z,46.50
2018-04-19T13:34:05.640Z,45.70
2018-04-19T13:36:33.090Z,45.50
2018-04-19T13:39:00.564Z,47.00
2018-04-19T13:41:28.019Z,45.20
2018-04-19T13:43:56.236Z,47.00
2018-04-19T13:46:23.699Z,46.90
2018-04-19T13:48:51.167Z,47.40
2018-04-19T13:51:18.622Z,44.10
2018-04-19T13:53:46.859Z,44.00
2018-04-19T13:56:15.069Z,45.80
2018-04-19T13:58:42.523Z,45.80
2018-04-19T14:01:10.021Z,46.20
2018-04-19T14:03:37.472Z,43.70
2018-04-19T14:06:04.921Z,46.70
2018-04-19T14:08:32.372Z,43.80
2018-04-19T14:10:59.825Z,44.70
2018-04-19T14:13:27.282Z,43.00
2018-04-19T14:15:54.745Z,43.00
2018-04-19T14:18:22.184Z,45.40
2018-04-19T14:20:50.482Z,43.10
2018-04-19T14:23:17.842Z,43.00
2018-04-19T14:25:46.612Z,44.20
2018-04-19T14:28:14.070Z,44.10
2018-04-19T14:30:41.517Z,40.70
2018-04-19T14:33:08.970Z,41.50
2018-04-19T14:35:36.429Z,42.30
2018-04-19T14:38:03.881Z,42.40
2018-04-19T14:40:31.335Z,42.60
2018-04-19T14:42:58.785Z,40.90
2018-04-19T14:45:26.253Z,39.30
2018-04-19T14:47:53.707Z,41.90
2018-04-19T14:50:21.179Z,39.60
2018-04-19T14:52:48.631Z,38.50
2018-04-19T14:55:16.207Z,38.40
2018-04-19T14:57:43.656Z,37.80
2018-04-19T15:00:11.871Z,40.90
2018-04-19T15:02:39.308Z,40.90
2018-04-19T15:05:06.774Z,40.00
2018-04-19T15:07:34.240Z,39.70
2018-04-19T15:10:01.703Z,40.20
2018-04-19T15:12:29.144Z,39.90
2018-04-19T15:14:56.619Z,39.50
2018-04-19T15:17:24.060Z,38.50
2018-04-19T15:19:51.516Z,39.00
2018-04-19T15:22:19.736Z,37.40
2018-04-19T15:24:47.191Z,38.10
2018-04-19T15:27:14.640Z,37.60
2018-04-19T15:29:42.095Z,37.70
2018-04-19T15:32:09.552Z,38.40
2018-04-19T15:34:37.810Z,38.80
2018-04-19T15:37:05.261Z,38.70
2018-04-19T15:39:32.720Z,38.70
2018-04-19T15:42:00.167Z,38.20
2018-04-19T15:44:27.631Z,39.40
2018-04-19T15:46:55.087Z,38.00
2018-04-19T15:49:22.561Z,39.70
2018-04-19T15:51:50.017Z,38.80
2018-04-19T15:54:17.477Z,38.70
2018-04-19T15:56:44.924Z,38.70
2018-04-19T15:59:12.392Z,39.30
2018-04-19T16:01:39.856Z,40.10
2018-04-19T16:04:07.317Z,40.00
2018-04-19T16:06:34.772Z,39.00
2018-04-19T16:09:02.238Z,37.90
2018-04-19T16:11:30.439Z,39.70
2018-04-19T16:13:57.883Z,39.60
2018-04-19T16:16:25.341Z,39.70
2018-04-19T16:18:52.794Z,39.30
2018-04-19T16:21:21.059Z,39.40
2018-04-19T16:23:48.517Z,39.50
2018-04-19T16:26:15.984Z,40.90
2018-04-19T16:28:48.624Z,41.40
2018-04-19T16:31:11.681Z,40.30
2018-04-19T16:33:39.129Z,40.40
2018-04-19T16:36:06.587Z,41.70
2018-04-19T16:38:34.044Z,41.00
2018-04-19T16:41:01.539Z,40.90
2018-04-19T16:43:28.947Z,43.00
2018-04-19T16:45:56.393Z,41.60
2018-04-19T16:50:57.860Z,40.60
2018-04-19T16:53:26.067Z,40.40
2018-04-19T16:55:54.288Z,42.40
2018-04-19T16:58:21.744Z,42.40
2018-04-19T17:00:49.242Z,41.60
2018-04-19T17:03:17.474Z,41.90
2018-04-19T17:05:44.930Z,41.90
2018-04-19T17:08:12.402Z,41.90
2018-04-19T17:10:39.857Z,43.00
2018-04-19T17:13:07.324Z,42.50
2018-04-19T17:15:34.782Z,43.40
2018-04-19T17:18:02.252Z,43.50
2018-04-19T17:23:20.826Z,44.20
2018-04-19T17:25:48.286Z,43.90
2018-04-19T17:28:15.738Z,43.40
2018-04-19T17:30:43.200Z,43.50
2018-04-19T17:33:10.634Z,43.30
2018-04-19T17:35:38.076Z,43.40
2018-04-19T17:38:06.298Z,43.80
2018-04-19T17:40:33.745Z,43.80
2018-04-19T17:43:01.201Z,43.60
2018-04-19T17:45:28.660Z,44.10
2018-04-19T17:47:56.128Z,43.40
2018-04-19T17:50:23.610Z,44.60
2018-04-19T17:52:51.059Z,44.20
2018-04-19T17:55:18.501Z,44.40
2018-04-19T17:57:45.960Z,44.50
2018-04-19T18:00:13.404Z,45.30
2018-04-19T18:02:41.645Z,47.90
2018-04-19T18:05:09.090Z,47.90
2018-04-19T18:07:36.565Z,50.00
2018-04-19T18:10:04.010Z,49.80
2018-04-19T18:12:31.470Z,50.30
2018-04-19T18:14:58.919Z,51.00
2018-04-19T18:17:26.391Z,51.30
2018-04-19T18:19:53.828Z,51.70
2018-04-19T18:22:21.284Z,52.20
2018-04-19T18:24:49.510Z,54.10
2018-04-19T18:27:16.968Z,54.00
2018-04-19T18:29:44.413Z,54.10
2018-04-19T18:32:11.879Z,55.20
2018-04-19T18:34:39.322Z,53.60
2018-04-19T18:37:06.776Z,55.10
2018-04-19T18:39:34.982Z,56.50
2018-04-19T18:42:02.470Z,56.40
2018-04-19T18:44:29.925Z,57.30
2018-04-19T18:46:57.381Z,56.00
2018-04-19T18:49:24.821Z,55.70
2018-04-19T18:51:52.278Z,56.10
2018-04-19T18:54:19.722Z,55.90
2018-04-19T18:56:47.937Z,56.20
2018-04-19T18:59:15.379Z,56.20
2018-04-19T19:01:43.603Z,58.50
2018-04-19T19:04:11.037Z,58.00
2018-04-19T19:06:38.477Z,57.80
2018-04-19T19:09:06.744Z,60.60
2018-04-19T19:11:34.166Z,60.50
2018-04-19T19:14:01.604Z,61.10
2018-04-19T19:16:29.069Z,61.30
2018-04-19T19:19:08.998Z,61.10
2018-04-19T19:21:37.218Z,59.80
2018-04-19T19:24:04.666Z,59.80
2018-04-19T19:26:32.122Z,59.50
2018-04-19T19:28:59.549Z,59.70
2018-04-19T19:31:27.788Z,60.20
2018-04-19T19:33:55.224Z,60.00
2018-04-19T19:36:22.659Z,60.80
2018-04-19T19:38:50.878Z,61.00
2018-04-19T19:41:18.331Z,61.30
2018-04-19T19:43:45.773Z,62.90
2018-04-19T19:46:13.228Z,63.90
2018-04-19T19:48:41.444Z,66.10
2018-04-19T19:51:08.907Z,65.40
2018-04-19T19:53:36.363Z,67.50
2018-04-19T19:56:03.804Z,66.40
2018-04-19T19:58:31.256Z,65.60
2018-04-19T20:00:59.464Z,66.10
2018-04-19T20:03:26.903Z,66.10
2018-04-19T20:05:54.354Z,65.80
2018-04-19T20:08:22.568Z,64.60
2018-04-19T20:10:50.026Z,64.60
2018-04-19T20:13:17.497Z,64.60
2018-04-19T20:15:44.929Z,65.40
2018-04-19T20:18:13.142Z,64.90
2018-04-19T20:20:40.571Z,65.00
2018-04-19T20:23:08.025Z,64.50
2018-04-19T20:25:36.236Z,66.10
2018-04-19T20:28:03.681Z,66.10
2018-04-19T20:30:31.158Z,66.50
2018-04-19T20:32:58.612Z,66.70
2018-04-19T20:35:26.059Z,66.80
2018-04-19T20:37:53.497Z,65.50
2018-04-19T20:40:27.230Z,65.60
2018-04-19T20:42:55.435Z,65.10
2018-04-19T20:45:22.877Z,65.10
2018-04-19T20:47:51.582Z,64.80
2018-04-19T20:50:19.054Z,64.50
2018-04-19T20:52:46.509Z,63.60
2018-04-19T20:55:13.939Z,63.30
2018-04-19T20:57:42.167Z,62.70
2018-04-19T21:00:09.612Z,62.60
2018-04-19T21:02:37.059Z,62.40
2018-04-19T21:05:04.506Z,61.40
2018-04-19T21:07:32.723Z,61.60
2018-04-19T21:10:00.172Z,61.50
2018-04-19T21:12:27.616Z,61.90
2018-04-19T21:14:55.095Z,62.60
2018-04-19T21:17:22.539Z,62.20
2018-04-19T21:19:50.782Z,62.10
2018-04-19T21:22:18.214Z,62.20
2018-04-19T21:24:45.653Z,62.90
2018-04-19T21:27:13.088Z,62.40
2018-04-19T21:29:41.309Z,61.40
2018-04-19T21:32:08.744Z,61.40
2018-04-19T21:34:38.281Z,60.60
2018-04-19T21:37:05.706Z,60.50
2018-04-19T21:39:33.172Z,60.90
2018-04-19T21:42:01.402Z,62.10
2018-04-19T21:44:28.827Z,62.00
2018-04-19T21:46:56.264Z,62.70
2018-04-19T21:49:23.708Z,63.40
2018-04-19T21:51:51.155Z,65.20
2018-04-19T21:54:18.605Z,66.10
2018-04-19T21:56:46.055Z,67.60
2018-04-19T21:59:13.525Z,67.70
2018-04-19T22:01:40.974Z,68.10
2018-04-19T22:04:08.414Z,68.90
2018-04-19T22:06:36.625Z,70.90
2018-04-19T22:09:04.080Z,70.80
2018-04-19T22:11:31.538Z,70.80
2018-04-19T22:13:58.973Z,70.70
2018-04-19T22:16:27.189Z,70.20
2018-04-19T22:18:54.651Z,70.20
2018-04-19T22:21:22.114Z,70.20
2018-04-19T22:23:49.550Z,69.50
2018-04-19T22:26:17.768Z,72.30
2018-04-19T22:28:45.205Z,72.30
2018-04-19T22:31:12.663Z,74.10
2018-04-19T22:33:40.100Z,74.60
2018-04-19T22:36:08.313Z,74.00
2018-04-19T22:38:35.760Z,74.00
2018-04-19T22:41:03.219Z,73.90
2018-04-19T22:43:31.424Z,75.10
2018-04-19T22:45:58.868Z,75.10
2018-04-19T22:48:26.315Z,74.80
2018-04-19T22:50:54.528Z,74.10
2018-04-19T22:53:21.983Z,73.90
2018-04-19T22:55:49.458Z,75.60
2018-04-19T22:58:16.876Z,76.10
2018-04-19T23:00:45.097Z,76.90
2018-04-19T23:03:12.543Z,76.90
2018-04-19T23:05:39.996Z,77.80
2018-04-19T23:08:07.460Z,76.40
2018-04-19T23:10:35.655Z,76.50
2018-04-19T23:13:03.092Z,76.50
2018-04-19T23:15:30.528Z,77.30
2018-04-19T23:17:57.973Z,77.20
2018-04-19T23:20:25.409Z,76.70
2018-04-19T23:22:52.861Z,75.20
2018-04-19T23:25:20.308Z,76.40
2018-04-19T23:27:47.748Z,75.60
2018-04-19T23:30:15.197Z,75.40
2018-04-19T23:32:42.637Z,76.70
2018-04-19T23:35:10.069Z,77.00
2018-04-19T23:37:37.598Z,76.40
2018-04-19T23:40:04.985Z,75.40
2018-04-19T23:42:32.435Z,74.70
2018-04-19T23:44:59.866Z,75.40
2018-04-19T23:47:27.316Z,75.60
2018-04-19T23:49:54.763Z,76.40
2018-04-19T23:52:22.215Z,76.40
2018-04-19T23:54:49.643Z,76.40
2018-04-19T23:57:17.092Z,75.80
2018-04-19T23:59:44.530Z,75.90
